Time;durP1;ratioP1;P1;durP2;ratioP2;P2;SDS_P1;SDS_P2;PMS_P1;PMS_P2;Temp;Humidity;BMP_temperature;BMP_pressure;BME280_temperature;BME280_humidity;BME280_pressure;Samples;Min_cycle;Max_cycle;Signal;HPM_P1;HPM_P2
2022/07/30 00:00:33;;;;;;;5.23;4.43;;;;;;;;;;10437217;28;20307;-68
2022/07/30 00:05:37;;;;;;;5.17;4.20;;;;;;;;;;10426858;28;20237;-69
2022/07/30 00:10:41;;;;;;;4.60;4.20;;;;;;;;;;10433108;28;20529;-70
2022/07/30 00:15:42;;;;;;;4.87;4.23;;;;;;;;;;10427367;28;20227;-68
2022/07/30 00:20:43;;;;;;;5.13;4.63;;;;;;;;;;10426417;28;20266;-69
2022/07/30 00:25:44;;;;;;;8.40;6.03;;;;;;;;;;10434267;28;20709;-70
2022/07/30 00:30:45;;;;;;;7.53;6.80;;;;;;;;;;10431107;28;20262;-70
2022/07/30 00:35:46;;;;;;;8.63;7.40;;;;;;;;;;10449659;28;20303;-69
2022/07/30 00:40:48;;;;;;;9.77;7.10;;;;;;;;;;10433751;28;20643;-69
2022/07/30 00:45:52;;;;;;;9.73;6.67;;;;;;;;;;10440729;28;20231;-69
2022/07/30 00:50:53;;;;;;;7.27;6.57;;;;;;;;;;10432792;28;20228;-68
2022/07/30 00:55:54;;;;;;;7.67;6.40;;;;;;;;;;10440548;28;20221;-69
2022/07/30 01:00:55;;;;;;;6.90;6.20;;;;;;;;;;10447770;28;20299;-68
2022/07/30 01:05:56;;;;;;;6.67;6.07;;;;;;;;;;10433959;28;20232;-70
2022/07/30 01:10:57;;;;;;;6.43;5.03;;;;;;;;;;10441369;28;20270;-69
2022/07/30 01:15:58;;;;;;;6.30;5.67;;;;;;;;;;10438186;28;20292;-69
2022/07/30 01:21:01;;;;;;;6.63;5.10;;;;;;;;;;10441662;28;20223;-69
2022/07/30 01:26:10;;;;;;;5.43;4.90;;;;;;;;;;10433987;28;20239;-69
2022/07/30 01:31:12;;;;;;;6.03;4.90;;;;;;;;;;10435939;28;20252;-69
2022/07/30 01:36:15;;;;;;;6.20;5.60;;;;;;;;;;10430903;28;20311;-69
2022/07/30 01:41:17;;;;;;;5.53;5.00;;;;;;;;;;10435230;28;20274;-69
2022/07/30 01:46:19;;;;;;;5.27;4.77;;;;;;;;;;10435355;28;20614;-70
2022/07/30 01:51:20;;;;;;;5.87;5.27;;;;;;;;;;10438589;28;20219;-69
2022/07/30 01:56:23;;;;;;;5.93;5.43;;;;;;;;;;10430273;28;20627;-69
2022/07/30 02:01:24;;;;;;;6.47;5.60;;;;;;;;;;10433487;28;20212;-69
2022/07/30 02:06:31;;;;;;;5.77;5.20;;;;;;;;;;10435662;28;20231;-69
2022/07/30 02:17:00;;;;;;;6.53;5.93;;;;;;;;;;10436334;28;20217;-69
2022/07/30 02:22:06;;;;;;;7.77;5.63;;;;;;;;;;10434614;28;20215;-69
2022/07/30 02:27:14;;;;;;;6.03;5.30;;;;;;;;;;10432061;28;20215;-70
2022/07/30 02:32:18;;;;;;;6.00;5.47;;;;;;;;;;10438367;28;20321;-69
2022/07/30 02:37:23;;;;;;;6.20;5.40;;;;;;;;;;10431673;28;20223;-70
2022/07/30 02:42:25;;;;;;;6.10;5.50;;;;;;;;;;10433461;28;20678;-69
2022/07/30 02:47:26;;;;;;;6.77;5.53;;;;;;;;;;10435993;28;20227;-69
2022/07/30 02:52:28;;;;;;;6.13;5.63;;;;;;;;;;10430862;28;20227;-70
2022/07/30 02:57:29;;;;;;;7.97;6.27;;;;;;;;;;10436795;28;20227;-70
2022/07/30 03:02:31;;;;;;;6.70;6.00;;;;;;;;;;10436931;28;20307;-69
2022/07/30 03:07:33;;;;;;;7.73;6.60;;;;;;;;;;10433236;28;20236;-69
2022/07/30 03:12:36;;;;;;;6.80;6.10;;;;;;;;;;10435239;28;20210;-70
2022/07/30 03:17:38;;;;;;;7.00;6.37;;;;;;;;;;10427922;28;20230;-70
2022/07/30 03:22:42;;;;;;;6.87;6.27;;;;;;;;;;10428408;28;20228;-69
2022/07/30 03:27:43;;;;;;;8.17;6.10;;;;;;;;;;10433878;28;20237;-69
2022/07/30 03:32:47;;;;;;;8.07;6.40;;;;;;;;;;10427624;28;20685;-69
2022/07/30 03:37:49;;;;;;;7.00;6.40;;;;;;;;;;10427641;28;20233;-69
2022/07/30 03:42:52;;;;;;;7.10;6.00;;;;;;;;;;10427299;28;20222;-68
2022/07/30 03:47:55;;;;;;;7.53;6.83;;;;;;;;;;10433889;28;20260;-69
2022/07/30 03:52:56;;;;;;;7.70;6.97;;;;;;;;;;10427773;28;20222;-68
2022/07/30 03:58:00;;;;;;;8.13;6.20;;;;;;;;;;10433867;28;20220;-69
2022/07/30 04:03:01;;;;;;;8.13;6.80;;;;;;;;;;10433556;28;20220;-69
2022/07/30 04:08:05;;;;;;;7.50;6.80;;;;;;;;;;10443701;28;20331;-69
2022/07/30 04:13:06;;;;;;;7.20;6.50;;;;;;;;;;10443227;28;20224;-70
2022/07/30 04:18:11;;;;;;;7.50;6.67;;;;;;;;;;10438320;28;20258;-69
2022/07/30 04:23:12;;;;;;;7.30;6.50;;;;;;;;;;10437419;28;20238;-69
2022/07/30 04:28:13;;;;;;;7.20;6.50;;;;;;;;;;10438479;28;20259;-70
2022/07/30 04:33:14;;;;;;;7.53;6.73;;;;;;;;;;10434135;28;20230;-69
2022/07/30 04:38:15;;;;;;;7.47;6.77;;;;;;;;;;10436783;28;20276;-70
2022/07/30 04:43:16;;;;;;;6.80;6.20;;;;;;;;;;10446364;28;20228;-69
2022/07/30 04:48:17;;;;;;;8.50;6.60;;;;;;;;;;10437691;28;20228;-70
2022/07/30 04:53:19;;;;;;;9.20;6.40;;;;;;;;;;10444059;28;20577;-69
2022/07/30 04:58:20;;;;;;;7.90;5.80;;;;;;;;;;10437692;28;20220;-70
2022/07/30 05:03:22;;;;;;;6.67;6.10;;;;;;;;;;10433013;28;20224;-70
2022/07/30 05:08:24;;;;;;;9.37;6.70;;;;;;;;;;10431887;28;20734;-69
2022/07/30 05:13:25;;;;;;;8.23;6.40;;;;;;;;;;10437646;28;20227;-69
2022/07/30 05:18:26;;;;;;;7.33;6.60;;;;;;;;;;10433690;28;20243;-68
2022/07/30 05:23:27;;;;;;;7.87;6.23;;;;;;;;;;10437728;28;20310;-69
2022/07/30 05:28:28;;;;;;;7.37;6.67;;;;;;;;;;10433863;28;20232;-68
2022/07/30 05:33:29;;;;;;;9.00;8.10;;;;;;;;;;10437387;28;20258;-69
2022/07/30 05:38:30;;;;;;;11.47;7.23;;;;;;;;;;10433314;28;20255;-70
2022/07/30 05:43:31;;;;;;;7.57;6.37;;;;;;;;;;10430225;28;20401;-70
2022/07/30 05:48:38;;;;;;;7.57;5.70;;;;;;;;;;10437063;28;20600;-69
2022/07/30 05:53:39;;;;;;;8.93;5.27;;;;;;;;;;10431063;28;20361;-70
2022/07/30 05:58:40;;;;;;;5.20;4.20;;;;;;;;;;10438052;28;20233;-71
2022/07/30 06:03:41;;;;;;;7.37;3.67;;;;;;;;;;10430977;28;20234;-70
2022/07/30 06:08:42;;;;;;;9.67;4.30;;;;;;;;;;10436583;28;20632;-70
2022/07/30 06:13:43;;;;;;;4.77;3.47;;;;;;;;;;10437175;28;20644;-70
2022/07/30 06:18:44;;;;;;;8.50;3.90;;;;;;;;;;10433383;28;20272;-69
2022/07/30 06:23:45;;;;;;;6.70;4.17;;;;;;;;;;10437045;28;20265;-71
2022/07/30 06:28:46;;;;;;;5.13;3.60;;;;;;;;;;10428242;28;20297;-70
2022/07/30 06:33:47;;;;;;;7.10;3.57;;;;;;;;;;10436353;28;20623;-69
2022/07/30 06:38:48;;;;;;;4.77;3.20;;;;;;;;;;10429086;28;20228;-70
2022/07/30 06:43:50;;;;;;;6.50;3.57;;;;;;;;;;10438151;28;20743;-69
2022/07/30 06:48:51;;;;;;;5.30;3.27;;;;;;;;;;10443781;28;20240;-70
2022/07/30 06:53:52;;;;;;;6.83;3.33;;;;;;;;;;10428084;28;20217;-70
2022/07/30 06:58:53;;;;;;;6.00;2.67;;;;;;;;;;10437679;28;20215;-70
2022/07/30 07:03:54;;;;;;;7.27;3.07;;;;;;;;;;10434273;28;20219;-70
2022/07/30 07:08:55;;;;;;;7.00;3.90;;;;;;;;;;10438927;28;20687;-69
2022/07/30 07:13:56;;;;;;;5.87;3.30;;;;;;;;;;10434705;28;20749;-70
2022/07/30 07:18:56;;;;;;;7.63;3.50;;;;;;;;;;10429938;28;20230;-70
2022/07/30 07:24:01;;;;;;;7.17;3.70;;;;;;;;;;10434470;28;20228;-70
2022/07/30 07:29:03;;;;;;;6.50;3.53;;;;;;;;;;10430024;28;20718;-70
2022/07/30 07:34:04;;;;;;;4.57;3.50;;;;;;;;;;10434004;28;20219;-69
2022/07/30 07:39:08;;;;;;;5.53;3.53;;;;;;;;;;10434748;28;20224;-69
2022/07/30 07:44:09;;;;;;;5.73;3.10;;;;;;;;;;10440672;28;20698;-71
2022/07/30 07:49:10;;;;;;;5.03;3.53;;;;;;;;;;10438607;28;20232;-71
2022/07/30 07:54:11;;;;;;;9.17;3.90;;;;;;;;;;10440668;28;20232;-71
2022/07/30 07:59:12;;;;;;;6.27;3.30;;;;;;;;;;10438745;28;20235;-70
2022/07/30 08:04:13;;;;;;;8.80;3.97;;;;;;;;;;10438872;28;20240;-69
2022/07/30 08:09:17;;;;;;;6.47;3.40;;;;;;;;;;10438689;28;20231;-70
2022/07/30 08:14:20;;;;;;;8.37;4.70;;;;;;;;;;10438801;28;20247;-70
2022/07/30 08:19:21;;;;;;;6.17;3.93;;;;;;;;;;10449035;28;20291;-70
2022/07/30 08:24:22;;;;;;;6.27;4.13;;;;;;;;;;10436700;28;20307;-72
2022/07/30 08:29:26;;;;;;;10.53;4.97;;;;;;;;;;10450173;28;20223;-70
2022/07/30 08:34:28;;;;;;;7.13;5.20;;;;;;;;;;10436534;28;20264;-70
2022/07/30 08:39:29;;;;;;;7.70;4.40;;;;;;;;;;10438810;28;20215;-70
2022/07/30 08:44:30;;;;;;;8.53;4.90;;;;;;;;;;10435049;28;20584;-70
2022/07/30 08:49:31;;;;;;;7.13;5.47;;;;;;;;;;10438615;28;20220;-70
2022/07/30 08:54:32;;;;;;;4.70;3.60;;;;;;;;;;10434862;28;20229;-70
2022/07/30 08:59:38;;;;;;;9.77;5.37;;;;;;;;;;10438870;28;20304;-70
2022/07/30 09:04:39;;;;;;;8.10;4.37;;;;;;;;;;10433243;28;20311;-70
2022/07/30 09:09:43;;;;;;;12.77;5.20;;;;;;;;;;10440935;28;20751;-70
2022/07/30 09:15:00;;;;;;;8.83;4.97;;;;;;;;;;10436687;28;20216;-70
2022/07/30 09:20:02;;;;;;;4.57;3.30;;;;;;;;;;10433618;28;20227;-69
2022/07/30 09:25:03;;;;;;;9.33;3.57;;;;;;;;;;10437764;28;20286;-70
2022/07/30 09:30:05;;;;;;;4.67;2.90;;;;;;;;;;10434243;28;20677;-69
2022/07/30 09:35:13;;;;;;;5.07;2.93;;;;;;;;;;10436720;28;20184;-69
2022/07/30 09:40:17;;;;;;;8.70;3.00;;;;;;;;;;10434826;28;20194;-69
2022/07/30 09:45:18;;;;;;;6.30;2.87;;;;;;;;;;10439371;28;20565;-70
2022/07/30 09:50:20;;;;;;;5.97;3.00;;;;;;;;;;10434900;28;20192;-70
2022/07/30 09:55:32;;;;;;;4.40;2.20;;;;;;;;;;10435162;28;20287;-70
2022/07/30 10:00:35;;;;;;;6.13;2.30;;;;;;;;;;10432492;28;20225;-70
2022/07/30 10:05:36;;;;;;;5.60;2.50;;;;;;;;;;10436771;28;20228;-69
2022/07/30 10:10:37;;;;;;;5.83;2.20;;;;;;;;;;10435200;28;20375;-69
2022/07/30 10:15:38;;;;;;;5.53;2.40;;;;;;;;;;10438375;28;20299;-70
2022/07/30 10:20:39;;;;;;;3.80;2.40;;;;;;;;;;10446426;28;20228;-69
2022/07/30 10:25:40;;;;;;;4.73;2.20;;;;;;;;;;10436707;28;20220;-70
2022/07/30 10:30:41;;;;;;;3.23;2.33;;;;;;;;;;10436606;28;20216;-70
2022/07/30 10:35:42;;;;;;;4.03;2.33;;;;;;;;;;10429978;28;20456;-71
2022/07/30 10:40:57;;;;;;;6.00;2.30;;;;;;;;;;10443840;28;20255;-70
2022/07/30 10:46:04;;;;;;;2.58;1.90;;;;;;;;;;10429648;28;20236;-69
2022/07/30 10:51:08;;;;;;;3.95;2.10;;;;;;;;;;10432451;28;20230;-69
2022/07/30 10:56:20;;;;;;;2.25;1.45;;;;;;;;;;10431651;28;20315;-70
2022/07/30 11:01:21;;;;;;;3.60;2.13;;;;;;;;;;10436650;28;20310;-70
2022/07/30 11:06:22;;;;;;;2.27;1.73;;;;;;;;;;10430954;28;20786;-70
2022/07/30 11:11:29;;;;;;;5.60;2.27;;;;;;;;;;10435720;28;20254;-70
2022/07/30 11:16:30;;;;;;;3.37;1.87;;;;;;;;;;10433575;28;20215;-70
2022/07/30 11:21:31;;;;;;;6.13;2.10;;;;;;;;;;10428426;28;20220;-70
2022/07/30 11:26:38;;;;;;;3.57;1.93;;;;;;;;;;10433557;28;20232;-70
2022/07/30 11:31:41;;;;;;;9.53;2.37;;;;;;;;;;10427688;28;20220;-70
2022/07/30 11:37:00;;;;;;;3.20;2.03;;;;;;;;;;10428512;28;20220;-70
2022/07/30 11:42:20;;;;;;;3.93;2.10;;;;;;;;;;10429530;28;20220;-70
2022/07/30 11:47:30;;;;;;;2.50;1.83;;;;;;;;;;10435021;28;20262;-70
2022/07/30 11:52:34;;;;;;;2.27;1.50;;;;;;;;;;10429822;28;20221;-70
2022/07/30 11:57:47;;;;;;;2.43;1.80;;;;;;;;;;10433906;28;20227;-70
2022/07/30 12:02:48;;;;;;;2.80;2.03;;;;;;;;;;10426859;28;20655;-70
2022/07/30 12:07:49;;;;;;;2.80;1.70;;;;;;;;;;10434744;28;20233;-69
2022/07/30 12:12:51;;;;;;;3.13;2.10;;;;;;;;;;10425856;28;20689;-70
2022/07/30 12:17:52;;;;;;;3.17;2.00;;;;;;;;;;10434411;28;20234;-70
2022/07/30 12:22:53;;;;;;;8.00;2.10;;;;;;;;;;10441631;28;20247;-70
2022/07/30 12:27:54;;;;;;;5.13;1.80;;;;;;;;;;10441569;28;20773;-70
2022/07/30 12:32:55;;;;;;;5.73;1.83;;;;;;;;;;10441168;28;20305;-69
2022/07/30 12:38:03;;;;;;;3.00;1.90;;;;;;;;;;10435016;28;20294;-68
2022/07/30 12:43:03;;;;;;;3.47;1.83;;;;;;;;;;10442485;28;20227;-68
2022/07/30 12:48:09;;;;;;;4.13;1.80;;;;;;;;;;10438876;28;20223;-69
2022/07/30 12:53:10;;;;;;;3.50;1.60;;;;;;;;;;10436254;28;20598;-69
2022/07/30 12:58:11;;;;;;;1.83;1.63;;;;;;;;;;10437958;28;20224;-69
2022/07/30 13:03:19;;;;;;;2.60;1.77;;;;;;;;;;10436737;28;20223;-70
2022/07/30 13:08:20;;;;;;;2.43;1.57;;;;;;;;;;10435650;28;20243;-70
2022/07/30 13:13:21;;;;;;;1.70;1.40;;;;;;;;;;10432041;28;20698;-70
2022/07/30 13:18:25;;;;;;;3.67;1.60;;;;;;;;;;10443672;28;20590;-70
2022/07/30 13:23:29;;;;;;;6.57;1.70;;;;;;;;;;10437468;28;20228;-70
2022/07/30 13:28:31;;;;;;;2.33;1.70;;;;;;;;;;10433800;28;20232;-70
2022/07/30 13:33:32;;;;;;;4.70;1.70;;;;;;;;;;10437604;28;20742;-70
2022/07/30 13:38:33;;;;;;;6.20;1.90;;;;;;;;;;10433129;28;20319;-69
2022/07/30 13:43:34;;;;;;;6.57;1.77;;;;;;;;;;10437187;28;20219;-69
2022/07/30 13:48:35;;;;;;;3.67;1.50;;;;;;;;;;10432805;28;20232;-71
2022/07/30 13:53:36;;;;;;;5.17;1.90;;;;;;;;;;10437875;28;20594;-70
2022/07/30 13:58:37;;;;;;;4.47;2.17;;;;;;;;;;10430809;28;20216;-68
2022/07/30 14:03:38;;;;;;;2.83;1.83;;;;;;;;;;10437350;28;20262;-69
2022/07/30 14:08:39;;;;;;;3.83;1.70;;;;;;;;;;10431328;28;20240;-69
2022/07/30 14:13:40;;;;;;;3.47;1.57;;;;;;;;;;10436881;28;20223;-69
2022/07/30 14:18:41;;;;;;;8.57;1.83;;;;;;;;;;10437173;28;20235;-70
2022/07/30 14:23:42;;;;;;;2.30;1.50;;;;;;;;;;10435298;28;20223;-69
2022/07/30 14:28:43;;;;;;;4.83;1.73;;;;;;;;;;10436961;28;20236;-69
2022/07/30 14:33:44;;;;;;;2.37;1.90;;;;;;;;;;10429819;28;20593;-70
2022/07/30 14:38:45;;;;;;;4.00;1.80;;;;;;;;;;10444355;28;20736;-70
2022/07/30 14:43:46;;;;;;;4.20;1.80;;;;;;;;;;10428954;28;20224;-69
2022/07/30 14:48:47;;;;;;;3.87;1.60;;;;;;;;;;10436257;28;20235;-71
2022/07/30 14:53:51;;;;;;;2.20;1.60;;;;;;;;;;10443904;28;20224;-69
2022/07/30 14:58:53;;;;;;;3.17;1.50;;;;;;;;;;10436082;28;20310;-70
2022/07/30 15:03:54;;;;;;;5.03;1.23;;;;;;;;;;10428985;28;20231;-70
2022/07/30 15:08:56;;;;;;;2.90;1.67;;;;;;;;;;10436752;28;20237;-70
2022/07/30 15:13:57;;;;;;;2.83;1.83;;;;;;;;;;10434906;28;20223;-70
2022/07/30 15:18:58;;;;;;;2.10;1.60;;;;;;;;;;10436004;28;20220;-70
2022/07/30 15:23:59;;;;;;;7.70;1.70;;;;;;;;;;10437373;28;20229;-70
2022/07/30 15:29:00;;;;;;;4.40;1.60;;;;;;;;;;10429776;28;20235;-70
2022/07/30 15:34:01;;;;;;;4.17;1.70;;;;;;;;;;10433691;28;20251;-70
2022/07/30 15:39:02;;;;;;;2.87;1.50;;;;;;;;;;10429738;28;20274;-70
2022/07/30 15:44:03;;;;;;;4.43;1.70;;;;;;;;;;10433715;28;20234;-69
2022/07/30 15:49:05;;;;;;;3.07;1.60;;;;;;;;;;10427183;28;20311;-69
2022/07/30 15:54:06;;;;;;;4.60;2.00;;;;;;;;;;10427017;28;20225;-69
2022/07/30 15:59:07;;;;;;;5.43;1.90;;;;;;;;;;10432478;28;21103;-70
2022/07/30 16:04:08;;;;;;;2.17;1.40;;;;;;;;;;10435540;28;20576;-70
2022/07/30 16:09:10;;;;;;;2.30;1.67;;;;;;;;;;10439536;28;20298;-70
2022/07/30 16:14:11;;;;;;;3.37;1.87;;;;;;;;;;10445287;28;20242;-70
2022/07/30 16:19:12;;;;;;;2.20;1.40;;;;;;;;;;10439341;28;20216;-70
2022/07/30 16:24:13;;;;;;;2.10;1.50;;;;;;;;;;10444400;28;20270;-70
2022/07/30 16:29:14;;;;;;;5.10;1.93;;;;;;;;;;10438869;28;20293;-69
2022/07/30 16:34:15;;;;;;;3.63;1.70;;;;;;;;;;10441783;28;20212;-69
2022/07/30 16:39:16;;;;;;;2.27;1.77;;;;;;;;;;10437668;28;20228;-68
2022/07/30 16:44:20;;;;;;;4.13;1.60;;;;;;;;;;10436233;28;20588;-69
2022/07/30 16:49:24;;;;;;;1.73;1.27;;;;;;;;;;10437750;28;20224;-69
2022/07/30 16:54:25;;;;;;;2.97;1.23;;;;;;;;;;10436438;28;20251;-69
2022/07/30 16:59:27;;;;;;;1.37;1.27;;;;;;;;;;10432740;28;20219;-69
2022/07/30 17:04:28;;;;;;;1.50;1.23;;;;;;;;;;10438472;28;20242;-70
2022/07/30 17:09:29;;;;;;;1.63;1.10;;;;;;;;;;10434063;28;20234;-70
2022/07/30 17:14:33;;;;;;;2.90;2.43;;;;;;;;;;10438764;28;20219;-70
2022/07/30 17:19:34;;;;;;;3.90;2.60;;;;;;;;;;10438037;28;20261;-69
2022/07/30 17:24:35;;;;;;;7.27;3.30;;;;;;;;;;10431964;28;20246;-69
2022/07/30 17:29:38;;;;;;;1.63;1.30;;;;;;;;;;10433286;28;20739;-69
2022/07/30 17:34:38;;;;;;;4.40;1.30;;;;;;;;;;10440790;28;20226;-69
2022/07/30 17:39:40;;;;;;;1.93;1.40;;;;;;;;;;10438904;28;20237;-69
2022/07/30 17:44:42;;;;;;;1.47;1.20;;;;;;;;;;10431727;28;20273;-69
2022/07/30 17:49:46;;;;;;;2.93;1.87;;;;;;;;;;10439205;28;20219;-69
2022/07/30 17:54:47;;;;;;;4.33;3.00;;;;;;;;;;10438749;28;20221;-69
2022/07/30 17:59:48;;;;;;;2.00;1.80;;;;;;;;;;10439005;28;20297;-69
2022/07/30 18:04:49;;;;;;;3.13;2.20;;;;;;;;;;10435533;28;20207;-69
2022/07/30 18:09:50;;;;;;;3.77;2.07;;;;;;;;;;10444225;28;20223;-69
2022/07/30 18:14:51;;;;;;;3.33;2.07;;;;;;;;;;10430444;28;20220;-70
2022/07/30 18:19:52;;;;;;;3.57;1.80;;;;;;;;;;10439888;28;20597;-68
2022/07/30 18:24:53;;;;;;;4.03;2.00;;;;;;;;;;10435198;28;20789;-69
2022/07/30 18:29:54;;;;;;;1.67;1.57;;;;;;;;;;10445649;28;20270;-70
2022/07/30 18:34:55;;;;;;;3.03;2.17;;;;;;;;;;10436190;28;20219;-70
2022/07/30 18:39:56;;;;;;;5.57;1.70;;;;;;;;;;10435813;28;20222;-70
2022/07/30 18:44:57;;;;;;;3.93;1.93;;;;;;;;;;10435685;28;20306;-70
2022/07/30 18:49:58;;;;;;;1.73;1.53;;;;;;;;;;10430048;28;20224;-70
2022/07/30 18:54:59;;;;;;;2.03;1.83;;;;;;;;;;10436317;28;20308;-70
2022/07/30 19:00:00;;;;;;;1.97;1.67;;;;;;;;;;10434882;28;20225;-69
2022/07/30 19:05:01;;;;;;;3.80;2.40;;;;;;;;;;10429160;28;20226;-69
2022/07/30 19:10:05;;;;;;;2.27;1.80;;;;;;;;;;10434396;28;20578;-71
2022/07/30 19:15:06;;;;;;;4.33;2.23;;;;;;;;;;10435848;28;20226;-70
2022/07/30 19:20:08;;;;;;;3.10;2.20;;;;;;;;;;10430316;28;20196;-69
2022/07/30 19:25:12;;;;;;;2.20;1.83;;;;;;;;;;10432740;28;20217;-69
2022/07/30 19:30:13;;;;;;;6.27;2.10;;;;;;;;;;10434568;28;20192;-69
2022/07/30 19:35:17;;;;;;;2.67;1.93;;;;;;;;;;10430543;28;20240;-70
2022/07/30 19:40:19;;;;;;;4.10;2.37;;;;;;;;;;10439804;28;20180;-70
2022/07/30 19:45:20;;;;;;;1.90;1.73;;;;;;;;;;10435577;28;20209;-70
2022/07/30 19:50:21;;;;;;;3.87;2.00;;;;;;;;;;10444231;28;20663;-70
2022/07/30 19:55:25;;;;;;;2.70;2.07;;;;;;;;;;10438536;28;20204;-70
2022/07/30 20:00:26;;;;;;;3.13;2.10;;;;;;;;;;10448263;28;20224;-70
2022/07/30 20:05:27;;;;;;;2.80;2.00;;;;;;;;;;10434755;28;20228;-69
2022/07/30 20:10:28;;;;;;;3.83;2.30;;;;;;;;;;10443522;28;20326;-70
2022/07/30 20:15:29;;;;;;;3.50;2.20;;;;;;;;;;10442728;28;20306;-70
2022/07/30 20:20:33;;;;;;;4.60;2.50;;;;;;;;;;10437788;28;20225;-70
2022/07/30 20:25:34;;;;;;;3.30;2.30;;;;;;;;;;10431485;28;20231;-67
2022/07/30 20:30:35;;;;;;;2.90;2.10;;;;;;;;;;10444758;28;20215;-68
2022/07/30 20:35:36;;;;;;;4.67;2.60;;;;;;;;;;10435150;28;20324;-67
2022/07/30 20:40:37;;;;;;;4.53;2.70;;;;;;;;;;10447769;28;20226;-66
2022/07/30 20:45:42;;;;;;;6.33;3.10;;;;;;;;;;10441457;28;20232;-68
2022/07/30 20:50:44;;;;;;;3.10;2.50;;;;;;;;;;10432559;28;20248;-66
2022/07/30 20:55:45;;;;;;;3.77;2.70;;;;;;;;;;10441510;28;20247;-67
2022/07/30 21:00:49;;;;;;;3.23;2.50;;;;;;;;;;10434113;28;20227;-67
2022/07/30 21:05:50;;;;;;;6.47;3.10;;;;;;;;;;10444211;28;20778;-68
2022/07/30 21:10:52;;;;;;;4.63;2.80;;;;;;;;;;10447219;28;20748;-68
2022/07/30 21:15:53;;;;;;;3.93;2.50;;;;;;;;;;10432864;28;20225;-67
2022/07/30 21:20:57;;;;;;;5.37;3.27;;;;;;;;;;10440320;28;20227;-67
2022/07/30 21:25:58;;;;;;;5.50;3.00;;;;;;;;;;10437725;28;20230;-68
2022/07/30 21:30:59;;;;;;;3.67;3.13;;;;;;;;;;10438699;28;20226;-66
2022/07/30 21:36:00;;;;;;;3.73;2.90;;;;;;;;;;10445036;28;20239;-66
2022/07/30 21:41:01;;;;;;;6.27;3.20;;;;;;;;;;10432836;28;20251;-67
2022/07/30 21:46:02;;;;;;;3.40;3.10;;;;;;;;;;10430779;28;20262;-67
2022/07/30 21:51:03;;;;;;;3.60;3.25;;;;;;;;;;10438093;28;20834;-67
2022/07/30 21:56:05;;;;;;;12.93;3.70;;;;;;;;;;10435876;28;20220;-66
2022/07/30 22:01:06;;;;;;;5.03;3.17;;;;;;;;;;10439783;28;20220;-66
2022/07/30 22:06:10;;;;;;;3.83;3.00;;;;;;;;;;10432666;28;20317;-67
2022/07/30 22:11:12;;;;;;;4.10;2.70;;;;;;;;;;10432425;28;20235;-68
2022/07/30 22:16:13;;;;;;;4.45;3.03;;;;;;;;;;10451438;28;20954;-69
2022/07/30 22:21:17;;;;;;;4.60;3.10;;;;;;;;;;10439397;28;20281;-68
2022/07/30 22:26:18;;;;;;;4.77;3.07;;;;;;;;;;10433275;28;20269;-68
2022/07/30 22:31:22;;;;;;;4.07;3.20;;;;;;;;;;10435185;28;20315;-69
2022/07/30 22:36:23;;;;;;;4.00;2.80;;;;;;;;;;10440326;28;20241;-68
2022/07/30 22:41:24;;;;;;;3.90;2.90;;;;;;;;;;10437123;28;20360;-67
2022/07/30 22:46:24;;;;;;;5.90;3.10;;;;;;;;;;10446251;28;20227;-67
2022/07/30 22:51:26;;;;;;;3.67;3.10;;;;;;;;;;10426044;28;20307;-68
2022/07/30 22:56:27;;;;;;;5.33;3.03;;;;;;;;;;10433188;28;20319;-68
2022/07/30 23:01:28;;;;;;;3.20;2.73;;;;;;;;;;10442304;28;20232;-68
2022/07/30 23:06:32;;;;;;;3.20;2.90;;;;;;;;;;10431996;28;20231;-69
2022/07/30 23:11:33;;;;;;;5.13;2.93;;;;;;;;;;10435772;28;20265;-69
2022/07/30 23:16:40;;;;;;;4.53;3.00;;;;;;;;;;10434851;28;20235;-69
2022/07/30 23:21:44;;;;;;;3.40;3.07;;;;;;;;;;10437160;28;20235;-69
2022/07/30 23:26:46;;;;;;;4.33;3.03;;;;;;;;;;10436332;28;20315;-69
2022/07/30 23:31:48;;;;;;;3.83;3.10;;;;;;;;;;10433271;28;20247;-69
2022/07/30 23:36:49;;;;;;;6.03;3.00;;;;;;;;;;10436106;28;20724;-70
2022/07/30 23:41:50;;;;;;;3.20;2.90;;;;;;;;;;10436368;28;20230;-68
2022/07/30 23:46:51;;;;;;;4.07;3.23;;;;;;;;;;10437789;28;20246;-68
2022/07/30 23:51:52;;;;;;;5.07;2.93;;;;;;;;;;10430921;28;20247;-68
2022/07/30 23:56:54;;;;;;;4.50;2.77;;;;;;;;;;10427022;28;20234;-68
